createdAt,value
2018-02-05T00:00:59.158Z,0.66
2018-02-05T00:01:59.063Z,0.66
2018-02-05T00:02:59.230Z,0.72
2018-02-05T00:03:58.905Z,0.69
2018-02-05T00:04:58.810Z,0.61
2018-02-05T00:05:58.746Z,0.65
2018-02-05T00:06:58.652Z,0.61
2018-02-05T00:07:58.566Z,0.57
2018-02-05T00:08:58.482Z,0.66
2018-02-05T00:09:58.386Z,0.58
2018-02-05T00:10:58.315Z,0.62
2018-02-05T00:11:58.228Z,0.61
2018-02-05T00:12:58.140Z,0.53
2018-02-05T00:13:58.057Z,0.58
2018-02-05T00:14:57.980Z,0.50
2018-02-05T00:15:57.903Z,0.53
2018-02-05T00:16:57.804Z,0.51
2018-02-05T00:17:57.725Z,0.60
2018-02-05T00:18:57.650Z,0.60
2018-02-05T00:19:57.553Z,0.61
2018-02-05T00:20:57.464Z,0.57
2018-02-05T00:21:57.382Z,0.60
2018-02-05T00:22:57.310Z,0.55
2018-02-05T00:23:57.227Z,0.57
2018-02-05T00:24:57.128Z,0.60
2018-02-05T00:25:57.048Z,0.58
2018-02-05T00:26:56.976Z,0.58
2018-02-05T00:27:57.179Z,0.61
2018-02-05T00:28:56.793Z,0.60
2018-02-05T00:29:56.703Z,0.57
2018-02-05T00:30:56.635Z,0.55
2018-02-05T00:31:56.543Z,0.55
2018-02-05T00:32:56.456Z,0.53
2018-02-05T00:33:56.388Z,0.53
2018-02-05T00:34:56.287Z,0.51
2018-02-05T00:35:56.202Z,0.50
2018-02-05T00:36:56.120Z,0.55
2018-02-05T00:37:56.028Z,0.47
2018-02-05T00:38:55.951Z,0.42
2018-02-05T00:39:55.874Z,0.50
2018-02-05T00:40:55.777Z,0.58
2018-02-05T00:41:55.698Z,0.51
2018-02-05T00:42:55.616Z,0.58
2018-02-05T00:43:55.528Z,0.47
2018-02-05T00:44:55.447Z,0.39
2018-02-05T00:45:55.366Z,0.36
2018-02-05T00:46:55.280Z,0.39
2018-02-05T00:47:55.201Z,0.38
2018-02-05T00:48:55.103Z,0.44
2018-02-05T00:49:55.032Z,0.33
2018-02-05T00:50:54.939Z,0.41
2018-02-05T00:51:54.861Z,0.36
2018-02-05T00:52:54.774Z,0.42
2018-02-05T00:53:54.685Z,0.38
2018-02-05T00:54:54.594Z,0.36
2018-02-05T00:55:54.538Z,0.46
2018-02-05T00:56:54.435Z,0.51
2018-02-05T00:57:54.360Z,0.49
2018-02-05T00:58:54.268Z,0.47
2018-02-05T00:59:54.182Z,0.53
2018-02-05T01:00:54.112Z,0.55
2018-02-05T01:01:54.003Z,0.53
2018-02-05T01:02:53.918Z,0.58
2018-02-05T01:03:53.858Z,0.57
2018-02-05T01:04:53.756Z,0.60
2018-02-05T01:05:53.686Z,0.60
2018-02-05T01:06:53.587Z,0.58
2018-02-05T01:07:53.509Z,0.60
2018-02-05T01:08:53.423Z,0.53
2018-02-05T01:09:53.329Z,0.60
2018-02-05T01:10:53.248Z,0.66
2018-02-05T01:11:53.175Z,0.66
2018-02-05T01:12:53.080Z,0.69
2018-02-05T01:13:53.010Z,0.66
2018-02-05T01:14:52.915Z,0.66
2018-02-05T01:15:52.844Z,0.68
2018-02-05T01:16:52.762Z,0.68
2018-02-05T01:17:52.661Z,0.62
2018-02-05T01:18:52.588Z,0.69
2018-02-05T01:19:52.513Z,0.66
2018-02-05T01:20:52.407Z,0.66
2018-02-05T01:21:52.330Z,0.66
2018-02-05T01:22:52.262Z,0.66
2018-02-05T01:23:52.156Z,0.73
2018-02-05T01:24:52.080Z,0.69
2018-02-05T01:25:51.988Z,0.76
2018-02-05T01:26:51.909Z,0.73
2018-02-05T01:27:52.128Z,0.76
2018-02-05T01:28:51.736Z,0.72
2018-02-05T01:29:51.667Z,0.80
2018-02-05T01:30:51.581Z,0.79
2018-02-05T01:31:51.483Z,0.75
2018-02-05T01:32:51.414Z,0.78
2018-02-05T01:33:51.313Z,0.75
2018-02-05T01:34:51.240Z,0.76
2018-02-05T01:35:51.165Z,0.76
2018-02-05T01:36:51.062Z,0.72
2018-02-05T01:37:50.988Z,0.78
2018-02-05T01:38:50.902Z,0.83
2018-02-05T01:39:50.819Z,0.76
2018-02-05T01:40:50.739Z,0.73
2018-02-05T01:41:50.640Z,0.78
2018-02-05T01:42:50.560Z,0.79
2018-02-05T01:43:50.477Z,0.83
2018-02-05T01:44:50.390Z,0.84
2018-02-05T01:45:50.317Z,0.86
2018-02-05T01:46:50.233Z,0.88
2018-02-05T01:47:50.139Z,0.78
2018-02-05T01:48:50.056Z,0.83
2018-02-05T01:49:49.987Z,0.90
2018-02-05T01:50:49.888Z,0.79
2018-02-05T01:51:49.809Z,0.83
2018-02-05T01:52:49.723Z,0.97
2018-02-05T01:53:49.641Z,0.93
2018-02-05T01:54:49.556Z,0.91
2018-02-05T01:55:49.464Z,0.87
2018-02-05T01:56:49.394Z,0.83
2018-02-05T01:57:49.299Z,0.86
2018-02-05T01:58:49.212Z,0.80
2018-02-05T01:59:49.129Z,0.80
2018-02-05T02:00:49.049Z,0.79
2018-02-05T02:01:48.969Z,0.83
2018-02-05T02:02:48.878Z,0.79
2018-02-05T02:03:48.790Z,0.78
2018-02-05T02:04:48.716Z,0.79
2018-02-05T02:05:48.639Z,0.79
2018-02-05T02:06:48.541Z,0.80
2018-02-05T02:07:48.467Z,0.76
2018-02-05T02:08:48.375Z,0.88
2018-02-05T02:09:48.292Z,0.83
2018-02-05T02:10:48.211Z,0.90
2018-02-05T02:11:48.115Z,0.76
2018-02-05T02:12:48.044Z,0.84
2018-02-05T02:13:47.957Z,0.83
2018-02-05T02:14:47.865Z,0.80
2018-02-05T02:15:47.793Z,0.90
2018-02-05T02:16:47.714Z,0.90
2018-02-05T02:17:47.621Z,0.91
2018-02-05T02:18:47.533Z,0.87
2018-02-05T02:19:47.455Z,0.88
2018-02-05T02:20:47.366Z,0.91
2018-02-05T02:21:47.276Z,0.90
2018-02-05T02:22:47.196Z,0.90
2018-02-05T02:23:47.118Z,0.83
2018-02-05T02:24:47.032Z,0.75
2018-02-05T02:25:46.948Z,0.79
2018-02-05T02:26:46.870Z,0.91
2018-02-05T02:27:46.779Z,0.91
2018-02-05T02:28:46.699Z,0.88
2018-02-05T02:29:46.602Z,0.94
2018-02-05T02:30:46.527Z,0.83
2018-02-05T02:31:46.448Z,0.83
2018-02-05T02:32:46.359Z,0.83
2018-02-05T02:33:46.270Z,0.88
2018-02-05T02:34:46.196Z,0.78
2018-02-05T02:35:46.119Z,0.83
2018-02-05T02:36:46.018Z,0.79
2018-02-05T02:37:45.949Z,0.79
2018-02-05T02:38:45.860Z,0.84
2018-02-05T02:39:45.770Z,0.78
2018-02-05T02:40:45.685Z,0.78
2018-02-05T02:41:45.593Z,0.87
2018-02-05T02:42:45.821Z,0.88
2018-02-05T02:43:45.434Z,1.00
2018-02-05T02:44:45.345Z,0.91
2018-02-05T02:45:45.278Z,0.94
2018-02-05T02:46:45.197Z,0.94
2018-02-05T02:47:45.097Z,1.00
2018-02-05T02:48:45.011Z,1.02
2018-02-05T02:49:44.936Z,0.90
2018-02-05T02:50:44.845Z,0.96
2018-02-05T02:51:44.773Z,0.78
2018-02-05T02:52:44.680Z,0.83
2018-02-05T02:53:44.599Z,0.83
2018-02-05T02:54:44.521Z,0.78
2018-02-05T02:55:44.418Z,0.75
2018-02-05T02:56:44.349Z,0.75
2018-02-05T02:57:44.264Z,0.79
2018-02-05T02:58:44.171Z,0.78
2018-02-05T02:59:44.092Z,0.70
2018-02-05T03:00:44.001Z,0.72
2018-02-05T03:01:43.923Z,0.72
2018-02-05T03:02:43.835Z,0.80
2018-02-05T03:03:43.742Z,0.83
2018-02-05T03:04:43.676Z,0.79
2018-02-05T03:05:43.582Z,0.80
2018-02-05T03:06:43.496Z,0.80
2018-02-05T03:07:43.411Z,0.78
2018-02-05T03:08:43.338Z,0.83
2018-02-05T03:09:43.249Z,0.79
2018-02-05T03:10:43.164Z,0.80
2018-02-05T03:11:43.072Z,0.79
2018-02-05T03:12:42.998Z,0.78
2018-02-05T03:13:42.908Z,0.80
2018-02-05T03:14:42.823Z,0.84
2018-02-05T03:15:42.737Z,0.83
2018-02-05T03:16:42.676Z,0.78
2018-02-05T03:17:42.576Z,0.83
2018-02-05T03:18:42.493Z,0.80
2018-02-05T03:19:42.402Z,0.83
2018-02-05T03:20:42.326Z,0.84
2018-02-05T03:21:42.235Z,0.80
2018-02-05T03:22:42.147Z,0.83
2018-02-05T03:23:42.077Z,0.78
2018-02-05T03:24:41.987Z,0.70
2018-02-05T03:25:41.905Z,0.69
2018-02-05T03:26:41.828Z,0.62
2018-02-05T03:27:41.726Z,0.68
2018-02-05T03:28:41.652Z,0.61
2018-02-05T03:29:41.561Z,0.68
2018-02-05T03:30:41.478Z,0.62
2018-02-05T03:31:41.404Z,0.68
2018-02-05T03:32:41.312Z,0.66
2018-02-05T03:33:41.225Z,0.61
2018-02-05T03:34:41.139Z,0.57
2018-02-05T03:35:41.048Z,0.58
2018-02-05T03:36:40.978Z,0.57
2018-02-05T03:37:41.139Z,0.53
2018-02-05T03:38:40.799Z,0.46
2018-02-05T03:39:40.719Z,0.46
2018-02-05T03:40:40.636Z,0.49
2018-02-05T03:41:40.560Z,0.49
2018-02-05T03:42:40.465Z,0.47
2018-02-05T03:43:40.377Z,0.39
2018-02-05T03:44:40.303Z,0.38
2018-02-05T03:45:40.215Z,0.41
2018-02-05T03:46:40.124Z,0.33
2018-02-05T03:47:40.055Z,0.41
2018-02-05T03:48:39.965Z,0.39
2018-02-05T03:49:39.877Z,0.36
2018-02-05T03:50:39.790Z,0.38
2018-02-05T03:51:39.705Z,0.39
2018-02-05T03:52:39.632Z,0.23
2018-02-05T03:53:39.543Z,0.28
2018-02-05T03:54:39.449Z,0.31
2018-02-05T03:55:39.373Z,0.26
2018-02-05T03:56:39.289Z,0.24
2018-02-05T03:57:39.205Z,0.29
2018-02-05T03:58:39.134Z,0.28
2018-02-05T03:59:39.032Z,0.17
2018-02-05T04:00:38.954Z,0.18
2018-02-05T04:01:38.881Z,0.15
2018-02-05T04:02:38.774Z,0.11
2018-02-05T04:03:38.697Z,0.14
2018-02-05T04:04:38.607Z,0.15
2018-02-05T04:05:38.547Z,0.14
2018-02-05T04:06:38.445Z,0.15
2018-02-05T04:07:38.353Z,0.24
2018-02-05T04:08:38.282Z,0.15
2018-02-05T04:09:38.195Z,0.20
2018-02-05T04:10:38.104Z,0.17
2018-02-05T04:11:38.020Z,0.20
2018-02-05T04:12:37.939Z,0.24
2018-02-05T04:13:37.859Z,0.20
2018-02-05T04:14:37.777Z,0.29
2018-02-05T04:15:37.679Z,0.23
2018-02-05T04:16:37.596Z,0.24
2018-02-05T04:17:37.758Z,0.23
2018-02-05T04:18:37.429Z,0.18
2018-02-05T04:19:37.351Z,0.17
2018-02-05T04:20:37.252Z,0.18
2018-02-05T04:21:37.186Z,0.17
2018-02-05T04:22:37.089Z,0.15
2018-02-05T04:23:37.002Z,0.04
2018-02-05T04:24:36.937Z,0.08
2018-02-05T04:25:36.830Z,0.04
2018-02-05T04:26:36.747Z,0.07
2018-02-05T04:27:36.684Z,0.02
2018-02-05T04:28:36.580Z,0.02
2018-02-05T04:29:36.501Z,-0.01
2018-02-05T04:30:36.413Z,-0.03
2018-02-05T04:31:36.330Z,0.00
2018-02-05T04:32:36.248Z,0.03
2018-02-05T04:33:36.153Z,-0.05
2018-02-05T04:34:36.081Z,-0.07
2018-02-05T04:35:35.984Z,-0.04
2018-02-05T04:36:35.907Z,-0.14
2018-02-05T04:37:36.123Z,-0.10
2018-02-05T04:38:35.735Z,-0.15
2018-02-05T04:39:35.660Z,-0.11
2018-02-05T04:40:35.568Z,-0.21
2018-02-05T04:41:35.490Z,-0.21
2018-02-05T04:42:35.396Z,-0.23
2018-02-05T04:43:35.317Z,-0.29
2018-02-05T04:44:35.237Z,-0.28
2018-02-05T04:45:35.147Z,-0.33
2018-02-05T04:46:35.063Z,-0.42
2018-02-05T04:47:35.226Z,-0.39
2018-02-05T04:48:34.884Z,-0.46
2018-02-05T04:49:34.809Z,-0.43
2018-02-05T04:50:34.724Z,-0.43
2018-02-05T04:51:34.631Z,-0.47
2018-02-05T04:52:34.563Z,-0.61
2018-02-05T04:53:34.459Z,-0.44
2018-02-05T04:54:34.382Z,-0.46
2018-02-05T04:55:34.299Z,-0.52
2018-02-05T04:56:34.207Z,-0.46
2018-02-05T04:57:34.127Z,-0.44
2018-02-05T04:58:34.043Z,-0.47
2018-02-05T04:59:33.963Z,-0.49
2018-02-05T05:00:33.874Z,-0.43
2018-02-05T05:01:33.787Z,-0.37
2018-02-05T05:02:33.707Z,-0.40
2018-02-05T05:03:33.613Z,-0.34
2018-02-05T05:04:33.535Z,-0.39
2018-02-05T05:05:33.464Z,-0.43
2018-02-05T05:06:33.363Z,-0.44
2018-02-05T05:07:33.286Z,-0.44
2018-02-05T05:08:33.197Z,-0.43
2018-02-05T05:09:33.107Z,-0.40
2018-02-05T05:10:33.036Z,-0.34
2018-02-05T05:11:32.937Z,-0.51
2018-02-05T05:12:32.853Z,-0.44
2018-02-05T05:13:32.763Z,-0.37
2018-02-05T05:14:32.689Z,-0.39
2018-02-05T05:15:32.597Z,-0.43
2018-02-05T05:16:32.514Z,-0.40
2018-02-05T05:17:32.435Z,-0.44
2018-02-05T05:18:32.336Z,-0.42
2018-02-05T05:19:32.265Z,-0.43
2018-02-05T05:20:32.178Z,-0.46
2018-02-05T05:21:32.087Z,-0.46
2018-02-05T05:22:32.002Z,-0.46
2018-02-05T05:23:31.908Z,-0.34
2018-02-05T05:24:31.843Z,-0.33
2018-02-05T05:25:31.755Z,-0.42
2018-02-05T05:26:31.661Z,-0.37
2018-02-05T05:27:31.591Z,-0.40
2018-02-05T05:28:31.501Z,-0.43
2018-02-05T05:29:31.415Z,-0.44
2018-02-05T05:30:31.344Z,-0.44
2018-02-05T05:31:31.236Z,-0.46
2018-02-05T05:32:31.152Z,-0.49
2018-02-05T05:33:31.060Z,-0.46
2018-02-05T05:34:30.980Z,-0.47
2018-02-05T05:35:30.894Z,-0.54
2018-02-05T05:36:30.814Z,-0.58
2018-02-05T05:37:30.735Z,-0.49
2018-02-05T05:38:30.648Z,-0.42
2018-02-05T05:39:30.555Z,-0.51
2018-02-05T05:40:30.468Z,-0.47
2018-02-05T05:41:30.389Z,-0.57
2018-02-05T05:42:30.300Z,-0.43
2018-02-05T05:43:30.220Z,-0.47
2018-02-05T05:44:30.185Z,-0.65
2018-02-05T05:45:30.044Z,-0.57
2018-02-05T05:46:29.974Z,-0.54
2018-02-05T05:47:29.892Z,-0.61
2018-02-05T05:48:29.791Z,-0.55
2018-02-05T05:49:29.700Z,-0.57
2018-02-05T05:50:29.619Z,-0.55
2018-02-05T05:51:29.529Z,-0.58
2018-02-05T05:52:29.454Z,-0.60
2018-02-05T05:53:29.370Z,-0.44
2018-02-05T05:54:29.282Z,-0.54
2018-02-05T05:55:29.193Z,-0.42
2018-02-05T05:56:29.111Z,-0.43
2018-02-05T05:57:29.015Z,-0.42
2018-02-05T05:58:28.937Z,-0.47
2018-02-05T05:59:28.874Z,-0.64
2018-02-05T06:00:28.763Z,-0.51
2018-02-05T06:01:28.680Z,-0.39
2018-02-05T06:02:28.842Z,-0.46
2018-02-05T06:03:28.506Z,-0.49
2018-02-05T06:04:28.444Z,-0.49
2018-02-05T06:05:28.349Z,-0.44
2018-02-05T06:06:28.255Z,-0.40
2018-02-05T06:07:28.170Z,-0.60
2018-02-05T06:08:28.077Z,-0.44
2018-02-05T06:09:28.000Z,-0.46
2018-02-05T06:10:27.924Z,-0.40
2018-02-05T06:11:27.839Z,-0.44
2018-02-05T06:12:27.747Z,-0.46
2018-02-05T06:13:27.655Z,-0.46
2018-02-05T06:14:27.570Z,-0.40
2018-02-05T06:15:27.496Z,-0.44
2018-02-05T06:16:27.406Z,-0.46
2018-02-05T06:17:27.325Z,-0.42
2018-02-05T06:18:27.250Z,-0.40
2018-02-05T06:19:27.141Z,-0.43
2018-02-05T06:20:27.062Z,-0.43
2018-02-05T06:21:26.996Z,-0.44
2018-02-05T06:22:26.893Z,-0.42
2018-02-05T06:23:26.814Z,-0.47
2018-02-05T06:24:26.718Z,-0.44
2018-02-05T06:25:26.651Z,-0.42
2018-02-05T06:26:26.552Z,-0.44
2018-02-05T06:27:26.468Z,-0.42
2018-02-05T06:28:26.405Z,-0.44
2018-02-05T06:29:26.293Z,-0.43
2018-02-05T06:30:26.204Z,-0.44
2018-02-05T06:31:26.129Z,-0.47
2018-02-05T06:32:26.043Z,-0.47
2018-02-05T06:33:25.977Z,-0.44
2018-02-05T06:34:25.878Z,-0.46
2018-02-05T06:35:25.792Z,-0.46
2018-02-05T06:36:25.703Z,-0.43
2018-02-05T06:37:25.907Z,-0.54
2018-02-05T06:38:25.525Z,-0.51
2018-02-05T06:39:25.449Z,-0.55
2018-02-05T06:40:25.368Z,-0.58
2018-02-05T06:41:25.272Z,-0.58
2018-02-05T06:42:25.201Z,-0.57
2018-02-05T06:43:25.093Z,-0.64
2018-02-05T06:44:25.033Z,-0.55
2018-02-05T06:45:24.946Z,-0.61
2018-02-05T06:46:24.902Z,-0.60
2018-02-05T06:47:25.030Z,-0.60
2018-02-05T06:48:24.675Z,-0.60
2018-02-05T06:49:24.603Z,-0.52
2018-02-05T06:50:24.509Z,-0.62
2018-02-05T06:51:24.430Z,-0.61
2018-02-05T06:52:24.343Z,-0.60
2018-02-05T06:53:24.248Z,-0.58
2018-02-05T06:54:24.202Z,-0.49
2018-02-05T06:55:24.071Z,-0.58
2018-02-05T06:56:24.002Z,-0.61
2018-02-05T06:57:24.210Z,-0.57
2018-02-05T06:58:23.826Z,-0.61
2018-02-05T06:59:23.751Z,-0.57
2018-02-05T07:00:23.645Z,-0.46
2018-02-05T07:01:23.574Z,-0.46
2018-02-05T07:02:23.737Z,-0.60
2018-02-05T07:03:23.400Z,-0.62
2018-02-05T07:04:23.312Z,-0.46
2018-02-05T07:05:23.227Z,-0.47
2018-02-05T07:06:23.138Z,-0.51
2018-02-05T07:07:23.063Z,-0.57
2018-02-05T07:08:22.976Z,-0.49
2018-02-05T07:09:22.891Z,-0.60
2018-02-05T07:10:22.802Z,-0.52
2018-02-05T07:11:22.714Z,-0.55
2018-02-05T07:12:22.638Z,-0.51
2018-02-05T07:13:22.545Z,-0.47
2018-02-05T07:14:22.468Z,-0.57
2018-02-05T07:15:22.382Z,-0.47
2018-02-05T07:16:22.287Z,-0.44
2018-02-05T07:17:22.206Z,-0.47
2018-02-05T07:18:22.128Z,-0.49
2018-02-05T07:19:22.037Z,-0.37
2018-02-05T07:20:21.953Z,-0.44
2018-02-05T07:21:21.862Z,-0.44
2018-02-05T07:22:21.774Z,-0.44
2018-02-05T07:23:21.692Z,-0.47
2018-02-05T07:24:21.619Z,-0.40
2018-02-05T07:25:21.527Z,-0.36
2018-02-05T07:26:21.490Z,-0.36
2018-02-05T07:27:21.351Z,-0.40
2018-02-05T07:28:21.267Z,-0.43
2018-02-05T07:29:21.193Z,-0.40
2018-02-05T07:30:21.105Z,-0.42
2018-02-05T07:31:21.032Z,-0.43
2018-02-05T07:32:20.923Z,-0.44
2018-02-05T07:33:20.842Z,-0.39
2018-02-05T07:34:20.760Z,-0.29
2018-02-05T07:35:20.678Z,-0.31
2018-02-05T07:36:20.597Z,-0.22
2018-02-05T07:37:20.799Z,-0.26
2018-02-05T07:38:20.444Z,-0.14
2018-02-05T07:39:20.332Z,-0.03
2018-02-05T07:40:20.251Z,0.00
2018-02-05T07:41:20.172Z,0.11
2018-02-05T07:42:20.082Z,0.18
2018-02-05T07:43:20.005Z,0.20
2018-02-05T07:44:19.909Z,0.23
2018-02-05T07:45:19.830Z,0.29
2018-02-05T07:46:19.755Z,0.36
2018-02-05T07:47:19.653Z,0.32
2018-02-05T07:48:19.566Z,0.20
2018-02-05T07:49:19.482Z,0.23
2018-02-05T07:50:19.406Z,0.38
2018-02-05T07:51:19.327Z,0.36
2018-02-05T07:52:19.260Z,0.39
2018-02-05T07:53:19.296Z,0.38
2018-02-05T07:54:19.128Z,0.36
2018-02-05T07:55:19.053Z,0.33
2018-02-05T07:56:18.963Z,0.35
2018-02-05T07:57:19.298Z,0.36
2018-02-05T07:58:18.720Z,0.33
2018-02-05T07:59:18.631Z,0.33
2018-02-05T08:00:18.562Z,0.39
2018-02-05T08:01:18.470Z,0.38
2018-02-05T08:02:18.378Z,0.38
2018-02-05T08:03:18.660Z,0.51
2018-02-05T08:04:18.379Z,0.39
2018-02-05T08:05:18.134Z,0.29
2018-02-05T08:06:18.060Z,0.26
2018-02-05T08:07:17.985Z,0.26
2018-02-05T08:08:18.233Z,0.24
2018-02-05T08:09:18.037Z,0.36
2018-02-05T08:10:17.801Z,0.41
2018-02-05T08:11:17.728Z,0.38
2018-02-05T08:12:17.575Z,0.31
2018-02-05T08:13:17.457Z,0.23
2018-02-05T08:14:17.444Z,0.35
2018-02-05T08:15:17.374Z,0.23
2018-02-05T08:16:17.220Z,0.38
2018-02-05T08:17:17.140Z,0.36
2018-02-05T08:18:17.068Z,0.39
2018-02-05T08:19:16.952Z,0.36
2018-02-05T08:20:16.854Z,0.44
2018-02-05T08:21:16.784Z,0.46
2018-02-05T08:22:16.727Z,0.49
2018-02-05T08:23:16.604Z,0.53
2018-02-05T08:24:16.533Z,0.55
2018-02-05T08:25:16.448Z,0.58
2018-02-05T08:26:16.355Z,0.53
2018-02-05T08:27:16.286Z,0.69
2018-02-05T08:28:16.182Z,0.73
2018-02-05T08:29:16.111Z,0.79
2018-02-05T08:30:16.038Z,0.62
2018-02-05T08:31:15.933Z,0.78
2018-02-05T08:32:15.864Z,0.69
2018-02-05T08:33:15.925Z,0.61
2018-02-05T08:34:15.690Z,0.72
2018-02-05T08:35:15.834Z,0.83
2018-02-05T08:36:15.643Z,0.72
2018-02-05T08:37:15.556Z,0.66
2018-02-05T08:38:15.382Z,0.62
2018-02-05T08:39:15.302Z,0.58
2018-02-05T08:40:15.246Z,0.57
2018-02-05T08:41:15.162Z,0.73
2018-02-05T08:42:15.031Z,0.84
2018-02-05T08:43:14.963Z,0.79
2018-02-05T08:44:14.838Z,0.88
2018-02-05T08:45:14.778Z,0.96
2018-02-05T08:46:14.676Z,0.90
2018-02-05T08:47:14.582Z,0.94
2018-02-05T08:48:14.516Z,1.04
2018-02-05T08:49:14.434Z,0.96
2018-02-05T08:50:14.334Z,0.97
2018-02-05T08:51:14.253Z,0.97
2018-02-05T08:52:14.171Z,0.97
2018-02-05T08:53:14.093Z,0.98
2018-02-05T08:54:14.001Z,0.98
2018-02-05T08:55:13.910Z,1.08
2018-02-05T08:56:13.834Z,0.98
2018-02-05T08:57:13.762Z,0.97
2018-02-05T08:58:13.662Z,0.96
2018-02-05T08:59:13.591Z,0.97
2018-02-05T09:00:13.516Z,1.08
2018-02-05T09:01:13.410Z,1.06
2018-02-05T09:02:13.336Z,1.08
2018-02-05T09:03:13.268Z,1.11
2018-02-05T09:04:13.158Z,1.24
2018-02-05T09:05:13.081Z,1.22
2018-02-05T09:06:13.019Z,1.30
2018-02-05T09:07:13.064Z,1.29
2018-02-05T09:08:12.838Z,1.20
2018-02-05T09:09:12.754Z,1.37
2018-02-05T09:10:12.664Z,1.45
2018-02-05T09:11:12.604Z,1.59
2018-02-05T09:12:12.513Z,1.79
2018-02-05T09:13:12.420Z,1.84
2018-02-05T09:14:12.375Z,2.05
2018-02-05T09:15:12.241Z,2.41
2018-02-05T09:16:12.164Z,2.25
2018-02-05T09:17:12.079Z,2.05
2018-02-05T09:18:11.989Z,1.80
2018-02-05T09:19:11.917Z,1.76
2018-02-05T09:20:11.866Z,1.76
2018-02-05T09:21:11.780Z,1.59
2018-02-05T09:22:11.666Z,1.62
2018-02-05T09:23:11.588Z,1.52
2018-02-05T09:24:11.490Z,1.37
2018-02-05T09:25:11.412Z,1.41
2018-02-05T09:26:11.546Z,1.51
2018-02-05T09:27:11.375Z,1.48
2018-02-05T09:28:11.214Z,1.50
2018-02-05T09:29:11.503Z,1.47
2018-02-05T09:30:11.020Z,1.55
2018-02-05T09:31:10.993Z,1.40
2018-02-05T09:32:10.972Z,1.62
2018-02-05T09:33:10.826Z,1.62
2018-02-05T09:34:11.027Z,1.47
2018-02-05T09:35:10.646Z,1.44
2018-02-05T09:36:10.488Z,1.36
2018-02-05T09:37:10.723Z,1.20
2018-02-05T09:38:10.554Z,1.22
2018-02-05T09:39:10.288Z,1.16
2018-02-05T09:40:10.168Z,1.08
2018-02-05T09:41:10.090Z,1.37
2018-02-05T09:42:10.014Z,1.26
2018-02-05T09:43:09.919Z,1.27
2018-02-05T09:44:09.837Z,1.44
2018-02-05T09:45:09.745Z,1.45
2018-02-05T09:46:09.659Z,1.30
2018-02-05T09:47:09.582Z,1.44
2018-02-05T09:48:09.498Z,1.37
2018-02-05T09:49:09.406Z,1.47
2018-02-05T09:50:09.344Z,1.42
2018-02-05T09:51:09.245Z,1.47
2018-02-05T09:52:09.166Z,1.60
2018-02-05T09:53:09.086Z,1.60
2018-02-05T09:54:09.001Z,1.70
2018-02-05T09:55:08.911Z,1.55
2018-02-05T09:56:08.820Z,1.68
2018-02-05T09:57:08.788Z,1.55
2018-02-05T09:58:08.689Z,1.55
2018-02-05T09:59:08.577Z,1.63
2018-02-05T10:00:08.496Z,1.66
2018-02-05T10:01:08.634Z,1.59
2018-02-05T10:02:08.457Z,1.50
2018-02-05T10:03:08.885Z,1.52
2018-02-05T10:04:08.184Z,1.62
2018-02-05T10:05:08.201Z,1.69
2018-02-05T10:06:08.149Z,1.72
2018-02-05T10:07:08.130Z,1.95
2018-02-05T10:08:07.915Z,2.00
2018-02-05T10:09:07.815Z,1.90
2018-02-05T10:10:07.661Z,1.93
2018-02-05T10:11:07.569Z,1.99
2018-02-05T10:12:07.697Z,2.05
2018-02-05T10:13:07.624Z,1.95
2018-02-05T10:14:07.322Z,2.00
2018-02-05T10:15:07.524Z,1.95
2018-02-05T10:16:07.177Z,2.23
2018-02-05T10:17:07.185Z,1.99
2018-02-05T10:18:07.770Z,1.93
2018-02-05T10:19:06.934Z,1.95
2018-02-05T10:20:07.024Z,1.91
2018-02-05T10:21:07.212Z,2.07
2018-02-05T10:22:06.777Z,1.88
2018-02-05T10:23:06.574Z,1.98
2018-02-05T10:24:06.787Z,1.76
2018-02-05T10:25:07.085Z,1.95
2018-02-05T10:26:06.322Z,1.80
2018-02-05T10:27:06.758Z,1.69
2018-02-05T10:28:06.744Z,1.72
2018-02-05T10:29:06.418Z,1.62
2018-02-05T10:30:06.586Z,1.60
2018-02-05T10:31:06.426Z,1.69
2018-02-05T10:32:05.811Z,1.88
2018-02-05T10:33:05.901Z,1.93
2018-02-05T10:34:05.687Z,1.66
2018-02-05T10:35:05.959Z,1.63
2018-02-05T10:36:05.725Z,1.44
2018-02-05T10:37:05.402Z,1.59
2018-02-05T10:38:05.332Z,1.95
2018-02-05T10:39:05.240Z,2.00
2018-02-05T10:40:05.411Z,1.72
2018-02-05T10:41:05.302Z,1.72
2018-02-05T10:42:04.989Z,1.70
2018-02-05T10:43:05.298Z,1.54
2018-02-05T10:44:04.860Z,1.42
2018-02-05T10:45:04.724Z,1.48
2018-02-05T10:46:05.266Z,1.32
2018-02-05T10:47:05.244Z,1.40
2018-02-05T10:48:04.932Z,1.32
2018-02-05T10:49:05.094Z,1.34
2018-02-05T10:50:04.910Z,1.59
2018-02-05T10:51:04.876Z,1.51
2018-02-05T10:52:04.141Z,1.40
2018-02-05T10:53:04.053Z,1.63
2018-02-05T10:54:04.038Z,1.80
2018-02-05T10:55:03.896Z,1.77
2018-02-05T10:56:04.184Z,1.88
2018-02-05T10:57:04.287Z,1.65
2018-02-05T10:58:04.280Z,1.72
2018-02-05T10:59:03.553Z,1.63
2018-02-05T11:00:03.483Z,1.51
2018-02-05T11:01:03.392Z,1.93
2018-02-05T11:02:03.304Z,2.36
2018-02-05T11:03:03.227Z,2.30
2018-02-05T11:04:03.142Z,2.16
2018-02-05T11:05:03.049Z,1.98
2018-02-05T11:06:02.975Z,2.21
2018-02-05T11:07:02.882Z,2.79
2018-02-05T11:08:02.806Z,3.11
2018-02-05T11:09:02.715Z,3.48
2018-02-05T11:10:02.637Z,3.32
2018-02-05T11:11:02.553Z,3.23
2018-02-05T11:12:02.472Z,3.42
2018-02-05T11:13:02.380Z,3.31
2018-02-05T11:14:02.302Z,3.31
2018-02-05T11:15:02.268Z,3.42
2018-02-05T11:16:02.262Z,3.55
2018-02-05T11:17:02.090Z,3.80
2018-02-05T11:18:01.971Z,3.88
2018-02-05T11:19:01.878Z,3.90
2018-02-05T11:20:01.812Z,3.61
2018-02-05T11:21:01.714Z,3.50
2018-02-05T11:22:01.632Z,3.55
2018-02-05T11:23:01.582Z,3.32
2018-02-05T11:24:01.481Z,3.32
2018-02-05T11:25:01.411Z,3.31
2018-02-05T11:26:01.305Z,3.45
2018-02-05T11:27:01.233Z,3.65
2018-02-05T11:28:01.182Z,3.36
2018-02-05T11:29:01.075Z,2.87
2018-02-05T11:30:00.975Z,2.71
2018-02-05T11:31:00.909Z,2.60
2018-02-05T11:32:00.849Z,3.10
2018-02-05T11:33:00.737Z,3.62
2018-02-05T11:34:00.679Z,4.02
2018-02-05T11:35:00.583Z,4.11
2018-02-05T11:36:00.514Z,4.22
2018-02-05T11:37:00.405Z,4.92
2018-02-05T11:38:00.330Z,4.88
2018-02-05T11:39:00.249Z,5.07
2018-02-05T11:40:00.153Z,4.59
2018-02-05T11:41:00.082Z,4.94
2018-02-05T11:42:00.008Z,5.46
2018-02-05T11:43:00.078Z,5.13
2018-02-05T11:43:59.846Z,5.20
2018-02-05T11:44:59.756Z,4.60
2018-02-05T11:45:59.679Z,5.33
2018-02-05T11:46:59.897Z,5.81
2018-02-05T11:47:59.570Z,5.64
2018-02-05T11:48:59.795Z,4.73
2018-02-05T11:49:59.356Z,5.35
2018-02-05T11:50:59.267Z,6.09
2018-02-05T11:51:59.207Z,5.18
2018-02-05T11:52:59.111Z,5.27
2018-02-05T11:53:59.036Z,5.61
2018-02-05T11:54:59.008Z,5.72
2018-02-05T11:55:59.114Z,5.53
2018-02-05T11:56:59.031Z,5.22
2018-02-05T11:57:58.714Z,4.80
2018-02-05T11:58:58.634Z,4.08
2018-02-05T11:59:58.560Z,3.97
2018-02-05T12:00:58.503Z,3.61
2018-02-05T12:01:58.406Z,3.69
2018-02-05T12:02:58.309Z,4.30
2018-02-05T12:03:58.233Z,4.06
2018-02-05T12:04:58.149Z,3.76
2018-02-05T12:05:58.090Z,3.70
2018-02-05T12:06:57.986Z,3.79
2018-02-05T12:07:57.913Z,3.83
2018-02-05T12:08:57.830Z,3.72
2018-02-05T12:09:57.759Z,3.48
2018-02-05T12:10:57.687Z,4.82
2018-02-05T12:11:57.587Z,5.38
2018-02-05T12:12:57.511Z,5.33
2018-02-05T12:13:57.429Z,5.53
2018-02-05T12:14:57.345Z,5.94
2018-02-05T12:15:57.288Z,6.19
2018-02-05T12:16:57.187Z,6.87
2018-02-05T12:17:57.111Z,7.46
2018-02-05T12:18:57.041Z,8.04
2018-02-05T12:19:56.961Z,7.15
2018-02-05T12:20:56.866Z,7.52
2018-02-05T12:21:56.787Z,7.25
2018-02-05T12:22:56.697Z,7.25
2018-02-05T12:23:56.637Z,5.90
2018-02-05T12:24:56.547Z,5.86
2018-02-05T12:25:56.459Z,6.31
2018-02-05T12:26:56.410Z,4.94
2018-02-05T12:27:56.308Z,4.42
2018-02-05T12:28:56.243Z,3.94
2018-02-05T12:29:56.166Z,3.69
2018-02-05T12:30:56.059Z,3.40
2018-02-05T12:31:55.990Z,3.23
2018-02-05T12:32:55.912Z,2.85
2018-02-05T12:33:55.836Z,2.69
2018-02-05T12:34:55.753Z,2.56
2018-02-05T12:35:55.675Z,2.54
2018-02-05T12:36:55.587Z,2.52
2018-02-05T12:37:55.511Z,2.34
2018-02-05T12:38:55.423Z,2.31
2018-02-05T12:39:55.344Z,2.39
2018-02-05T12:40:55.258Z,2.23
2018-02-05T12:41:55.189Z,2.09
2018-02-05T12:42:55.117Z,2.21
2018-02-05T12:43:55.015Z,2.20
2018-02-05T12:44:54.944Z,2.20
2018-02-05T12:45:54.868Z,2.25
2018-02-05T12:46:54.774Z,2.23
2018-02-05T12:47:54.695Z,2.17
2018-02-05T12:48:54.613Z,2.07
2018-02-05T12:49:54.524Z,2.14
2018-02-05T12:50:54.446Z,2.00
2018-02-05T12:51:54.364Z,2.00
2018-02-05T12:52:54.291Z,2.10
2018-02-05T12:53:54.218Z,2.20
2018-02-05T12:54:54.118Z,2.10
2018-02-05T12:55:54.045Z,1.84
2018-02-05T12:56:53.965Z,1.95
2018-02-05T12:57:53.888Z,1.87
2018-02-05T12:58:53.791Z,1.76
2018-02-05T12:59:53.856Z,1.73
2018-02-05T13:00:53.632Z,1.79
2018-02-05T13:01:53.540Z,1.62
2018-02-05T13:02:53.461Z,1.65
2018-02-05T13:03:53.394Z,1.62
2018-02-05T13:04:53.289Z,1.60
2018-02-05T13:05:53.215Z,1.59
2018-02-05T13:06:53.130Z,1.72
2018-02-05T13:07:53.036Z,1.59
2018-02-05T13:08:52.969Z,1.59
2018-02-05T13:09:52.891Z,1.41
2018-02-05T13:10:52.789Z,1.37
2018-02-05T13:11:52.716Z,1.37